sensor_id;sensor_type;location;lat;lon;timestamp;pressure;altitude;pressure_sealevel;temperature;humidity
64844;BME280;51310;52.198;5.422;2023-02-15T00:01:41;102719.88;;;1.05;100.00
64844;BME280;51310;52.198;5.422;2023-02-15T00:04:09;102714.53;;;1.03;100.00
64844;BME280;51310;52.198;5.422;2023-02-15T00:06:35;102711.25;;;0.99;100.00
64844;BME280;51310;52.198;5.422;2023-02-15T00:09:02;102708.88;;;0.95;100.00
64844;BME280;51310;52.198;5.422;2023-02-15T00:11:29;102696.22;;;0.95;100.00
64844;BME280;51310;52.198;5.422;2023-02-15T00:16:37;102704.50;;;0.94;100.00
64844;BME280;51310;52.198;5.422;2023-02-15T00:19:03;102699.44;;;0.94;100.00
64844;BME280;51310;52.198;5.422;2023-02-15T00:21:32;102708.13;;;0.90;100.00
64844;BME280;51310;52.198;5.422;2023-02-15T00:23:59;102701.88;;;0.88;100.00
64844;BME280;51310;52.198;5.422;2023-02-15T00:26:26;102699.34;;;0.88;100.00
64844;BME280;51310;52.198;5.422;2023-02-15T00:28:53;102706.03;;;0.88;100.00
64844;BME280;51310;52.198;5.422;2023-02-15T00:31:20;102704.84;;;0.86;100.00
64844;BME280;51310;52.198;5.422;2023-02-15T00:33:45;102701.56;;;0.81;100.00
64844;BME280;51310;52.198;5.422;2023-02-15T00:36:12;102698.34;;;0.82;100.00
64844;BME280;51310;52.198;5.422;2023-02-15T00:38:38;102692.78;;;0.79;100.00
64844;BME280;51310;52.198;5.422;2023-02-15T00:41:07;102691.59;;;0.77;100.00
64844;BME280;51310;52.198;5.422;2023-02-15T00:43:34;102689.75;;;0.76;100.00
64844;BME280;51310;52.198;5.422;2023-02-15T00:46:01;102679.34;;;0.74;100.00
64844;BME280;51310;52.198;5.422;2023-02-15T00:48:27;102677.47;;;0.73;100.00
64844;BME280;51310;52.198;5.422;2023-02-15T00:50:56;102677.25;;;0.72;100.00
64844;BME280;51310;52.198;5.422;2023-02-15T00:53:23;102679.25;;;0.69;100.00
64844;BME280;51310;52.198;5.422;2023-02-15T00:55:49;102679.69;;;0.66;100.00
64844;BME280;51310;52.198;5.422;2023-02-15T00:58:16;102678.66;;;0.60;100.00
64844;BME280;51310;52.198;5.422;2023-02-15T01:00:45;102678.44;;;0.58;100.00
64844;BME280;51310;52.198;5.422;2023-02-15T01:03:13;102683.91;;;0.56;100.00
64844;BME280;51310;52.198;5.422;2023-02-15T01:05:40;102681.81;;;0.53;100.00
64844;BME280;51310;52.198;5.422;2023-02-15T01:08:06;102673.00;;;0.51;100.00
64844;BME280;51310;52.198;5.422;2023-02-15T01:10:34;102679.00;;;0.52;100.00
64844;BME280;51310;52.198;5.422;2023-02-15T01:13:01;102690.25;;;0.48;100.00
64844;BME280;51310;52.198;5.422;2023-02-15T01:15:28;102679.38;;;0.44;100.00
64844;BME280;51310;52.198;5.422;2023-02-15T01:17:53;102674.19;;;0.38;100.00
64844;BME280;51310;52.198;5.422;2023-02-15T01:20:24;102680.59;;;0.36;100.00
64844;BME280;51310;52.198;5.422;2023-02-15T01:22:51;102679.69;;;0.35;100.00
64844;BME280;51310;52.198;5.422;2023-02-15T01:25:20;102673.44;;;0.33;100.00
64844;BME280;51310;52.198;5.422;2023-02-15T01:27:46;102662.63;;;0.34;100.00
64844;BME280;51310;52.198;5.422;2023-02-15T01:30:14;102660.50;;;0.32;100.00
64844;BME280;51310;52.198;5.422;2023-02-15T01:32:41;102662.38;;;0.33;100.00
64844;BME280;51310;52.198;5.422;2023-02-15T01:35:08;102654.25;;;0.30;100.00
64844;BME280;51310;52.198;5.422;2023-02-15T01:37:35;102651.25;;;0.27;100.00
64844;BME280;51310;52.198;5.422;2023-02-15T01:40:03;102642.47;;;0.25;100.00
64844;BME280;51310;52.198;5.422;2023-02-15T01:42:29;102645.25;;;0.26;100.00
64844;BME280;51310;52.198;5.422;2023-02-15T01:45:03;102639.00;;;0.24;100.00
64844;BME280;51310;52.198;5.422;2023-02-15T01:47:44;102643.31;;;0.19;100.00
64844;BME280;51310;52.198;5.422;2023-02-15T01:50:29;102637.72;;;0.16;100.00
64844;BME280;51310;52.198;5.422;2023-02-15T01:53:10;102636.53;;;0.14;100.00
64844;BME280;51310;52.198;5.422;2023-02-15T01:55:47;102627.75;;;0.12;100.00
64844;BME280;51310;52.198;5.422;2023-02-15T01:58:13;102640.41;;;0.12;100.00
64844;BME280;51310;52.198;5.422;2023-02-15T02:00:40;102626.34;;;0.09;100.00
64844;BME280;51310;52.198;5.422;2023-02-15T02:03:06;102641.53;;;0.09;100.00
64844;BME280;51310;52.198;5.422;2023-02-15T02:05:32;102632.97;;;0.08;100.00
64844;BME280;51310;52.198;5.422;2023-02-15T02:08:01;102627.00;;;0.08;100.00
64844;BME280;51310;52.198;5.422;2023-02-15T02:10:28;102628.06;;;0.04;100.00
64844;BME280;51310;52.198;5.422;2023-02-15T02:13:03;102627.56;;;0.01;100.00
64844;BME280;51310;52.198;5.422;2023-02-15T02:28:06;102612.44;;;-0.09;100.00
64844;BME280;51310;52.198;5.422;2023-02-15T02:34:08;102604.94;;;-0.18;100.00
64844;BME280;51310;52.198;5.422;2023-02-15T02:37:24;102608.38;;;-0.18;100.00
64844;BME280;51310;52.198;5.422;2023-02-15T02:40:26;102596.00;;;-0.16;100.00
64844;BME280;51310;52.198;5.422;2023-02-15T02:43:16;102593.91;;;-0.19;100.00
64844;BME280;51310;52.198;5.422;2023-02-15T02:45:53;102593.19;;;-0.18;100.00
64844;BME280;51310;52.198;5.422;2023-02-15T02:48:27;102594.66;;;-0.14;100.00
64844;BME280;51310;52.198;5.422;2023-02-15T02:50:55;102586.38;;;-0.13;100.00
64844;BME280;51310;52.198;5.422;2023-02-15T02:53:21;102585.72;;;-0.12;100.00
64844;BME280;51310;52.198;5.422;2023-02-15T02:55:54;102582.16;;;-0.18;100.00
64844;BME280;51310;52.198;5.422;2023-02-15T02:58:42;102583.09;;;-0.18;100.00
64844;BME280;51310;52.198;5.422;2023-02-15T03:01:40;102586.72;;;-0.22;100.00
64844;BME280;51310;52.198;5.422;2023-02-15T03:04:30;102579.94;;;-0.27;100.00
64844;BME280;51310;52.198;5.422;2023-02-15T03:07:03;102575.31;;;-0.29;100.00
64844;BME280;51310;52.198;5.422;2023-02-15T03:09:39;102572.53;;;-0.31;100.00
64844;BME280;51310;52.198;5.422;2023-02-15T03:12:32;102565.63;;;-0.32;100.00
64844;BME280;51310;52.198;5.422;2023-02-15T03:15:25;102569.75;;;-0.32;100.00
64844;BME280;51310;52.198;5.422;2023-02-15T03:17:57;102564.28;;;-0.30;100.00
64844;BME280;51310;52.198;5.422;2023-02-15T03:20:36;102549.25;;;-0.34;100.00
64844;BME280;51310;52.198;5.422;2023-02-15T03:23:10;102550.28;;;-0.28;100.00
64844;BME280;51310;52.198;5.422;2023-02-15T03:25:42;102551.09;;;-0.33;100.00
64844;BME280;51310;52.198;5.422;2023-02-15T03:28:17;102552.88;;;-0.37;100.00
64844;BME280;51310;52.198;5.422;2023-02-15T03:30:51;102552.59;;;-0.39;100.00
64844;BME280;51310;52.198;5.422;2023-02-15T03:33:19;102540.78;;;-0.44;100.00
64844;BME280;51310;52.198;5.422;2023-02-15T03:36:20;102543.22;;;-0.50;100.00
64844;BME280;51310;52.198;5.422;2023-02-15T03:39:04;102542.28;;;-0.50;100.00
64844;BME280;51310;52.198;5.422;2023-02-15T03:41:39;102548.47;;;-0.54;100.00
64844;BME280;51310;52.198;5.422;2023-02-15T03:44:29;102537.16;;;-0.56;100.00
64844;BME280;51310;52.198;5.422;2023-02-15T03:47:13;102537.31;;;-0.60;100.00
64844;BME280;51310;52.198;5.422;2023-02-15T03:49:54;102547.16;;;-0.62;100.00
64844;BME280;51310;52.198;5.422;2023-02-15T03:52:25;102542.53;;;-0.64;100.00
64844;BME280;51310;52.198;5.422;2023-02-15T03:54:53;102543.59;;;-0.68;100.00
64844;BME280;51310;52.198;5.422;2023-02-15T03:57:23;102536.72;;;-0.69;100.00
64844;BME280;51310;52.198;5.422;2023-02-15T04:00:22;102534.41;;;-0.67;100.00
64844;BME280;51310;52.198;5.422;2023-02-15T04:03:33;102530.03;;;-0.68;100.00
64844;BME280;51310;52.198;5.422;2023-02-15T04:06:03;102532.31;;;-0.70;100.00
64844;BME280;51310;52.198;5.422;2023-02-15T04:08:29;102522.19;;;-0.70;100.00
64844;BME280;51310;52.198;5.422;2023-02-15T04:11:13;102525.00;;;-0.68;100.00
64844;BME280;51310;52.198;5.422;2023-02-15T04:13:39;102524.72;;;-0.70;100.00
64844;BME280;51310;52.198;5.422;2023-02-15T04:16:05;102530.03;;;-0.68;100.00
64844;BME280;51310;52.198;5.422;2023-02-15T04:18:39;102530.97;;;-0.68;100.00
64844;BME280;51310;52.198;5.422;2023-02-15T04:21:26;102530.53;;;-0.65;100.00
64844;BME280;51310;52.198;5.422;2023-02-15T04:24:11;102527.50;;;-0.68;100.00
64844;BME280;51310;52.198;5.422;2023-02-15T04:26:55;102525.63;;;-0.69;100.00
64844;BME280;51310;52.198;5.422;2023-02-15T04:29:23;102527.50;;;-0.68;100.00
64844;BME280;51310;52.198;5.422;2023-02-15T04:31:51;102525.41;;;-0.71;100.00
64844;BME280;51310;52.198;5.422;2023-02-15T04:34:18;102519.66;;;-0.70;100.00
64844;BME280;51310;52.198;5.422;2023-02-15T04:36:44;102515.13;;;-0.67;100.00
64844;BME280;51310;52.198;5.422;2023-02-15T04:39:13;102521.53;;;-0.69;100.00
64844;BME280;51310;52.198;5.422;2023-02-15T04:41:39;102510.88;;;-0.72;100.00
64844;BME280;51310;52.198;5.422;2023-02-15T04:44:05;102506.38;;;-0.69;100.00
64844;BME280;51310;52.198;5.422;2023-02-15T04:46:31;102507.13;;;-0.64;100.00
64844;BME280;51310;52.198;5.422;2023-02-15T04:48:56;102497.78;;;-0.59;100.00
64844;BME280;51310;52.198;5.422;2023-02-15T04:51:23;102500.97;;;-0.60;100.00
64844;BME280;51310;52.198;5.422;2023-02-15T04:53:49;102487.16;;;-0.63;100.00
64844;BME280;51310;52.198;5.422;2023-02-15T04:56:15;102500.66;;;-0.52;100.00
64844;BME280;51310;52.198;5.422;2023-02-15T04:58:41;102492.41;;;-0.51;100.00
64844;BME280;51310;52.198;5.422;2023-02-15T05:01:08;102489.72;;;-0.47;100.00
64844;BME280;51310;52.198;5.422;2023-02-15T05:03:34;102493.66;;;-0.44;100.00
64844;BME280;51310;52.198;5.422;2023-02-15T05:06:00;102493.16;;;-0.47;100.00
64844;BME280;51310;52.198;5.422;2023-02-15T05:08:26;102487.03;;;-0.43;100.00
64844;BME280;51310;52.198;5.422;2023-02-15T05:10:51;102483.97;;;-0.31;100.00
64844;BME280;51310;52.198;5.422;2023-02-15T05:13:17;102492.25;;;-0.32;100.00
64844;BME280;51310;52.198;5.422;2023-02-15T05:15:51;102481.88;;;-0.33;100.00
64844;BME280;51310;52.198;5.422;2023-02-15T05:18:19;102483.91;;;-0.36;100.00
64844;BME280;51310;52.198;5.422;2023-02-15T05:20:46;102480.69;;;-0.35;100.00
64844;BME280;51310;52.198;5.422;2023-02-15T05:23:12;102482.97;;;-0.37;100.00
64844;BME280;51310;52.198;5.422;2023-02-15T05:25:38;102479.66;;;-0.42;100.00
64844;BME280;51310;52.198;5.422;2023-02-15T05:28:26;102482.53;;;-0.50;100.00
64844;BME280;51310;52.198;5.422;2023-02-15T05:31:12;102487.78;;;-0.54;100.00
64844;BME280;51310;52.198;5.422;2023-02-15T05:33:39;102489.69;;;-0.63;100.00
64844;BME280;51310;52.198;5.422;2023-02-15T05:36:06;102492.63;;;-0.65;100.00
64844;BME280;51310;52.198;5.422;2023-02-15T05:38:33;102495.31;;;-0.69;100.00
64844;BME280;51310;52.198;5.422;2023-02-15T05:40:59;102485.19;;;-0.69;100.00
64844;BME280;51310;52.198;5.422;2023-02-15T05:43:25;102486.16;;;-0.69;100.00
64844;BME280;51310;52.198;5.422;2023-02-15T05:45:53;102481.50;;;-0.71;100.00
64844;BME280;51310;52.198;5.422;2023-02-15T05:48:23;102485.75;;;-0.76;100.00
64844;BME280;51310;52.198;5.422;2023-02-15T05:51:08;102489.91;;;-0.76;100.00
64844;BME280;51310;52.198;5.422;2023-02-15T05:53:37;102490.66;;;-0.72;100.00
64844;BME280;51310;52.198;5.422;2023-02-15T05:56:05;102487.81;;;-0.64;100.00
64844;BME280;51310;52.198;5.422;2023-02-15T05:58:34;102484.88;;;-0.61;100.00
64844;BME280;51310;52.198;5.422;2023-02-15T06:01:15;102482.28;;;-0.67;100.00
64844;BME280;51310;52.198;5.422;2023-02-15T06:03:41;102485.78;;;-0.60;100.00
64844;BME280;51310;52.198;5.422;2023-02-15T06:06:08;102474.75;;;-0.61;100.00
64844;BME280;51310;52.198;5.422;2023-02-15T06:08:35;102472.75;;;-0.58;100.00
64844;BME280;51310;52.198;5.422;2023-02-15T06:11:02;102471.16;;;-0.57;100.00
64844;BME280;51310;52.198;5.422;2023-02-15T06:13:28;102478.78;;;-0.67;100.00
64844;BME280;51310;52.198;5.422;2023-02-15T06:15:54;102477.22;;;-0.67;100.00
64844;BME280;51310;52.198;5.422;2023-02-15T06:18:20;102471.63;;;-0.70;100.00
64844;BME280;51310;52.198;5.422;2023-02-15T06:20:47;102473.72;;;-0.67;100.00
64844;BME280;51310;52.198;5.422;2023-02-15T06:23:13;102471.63;;;-0.70;100.00
64844;BME280;51310;52.198;5.422;2023-02-15T06:25:39;102462.38;;;-0.59;100.00
64844;BME280;51310;52.198;5.422;2023-02-15T06:28:05;102458.66;;;-0.62;100.00
64844;BME280;51310;52.198;5.422;2023-02-15T06:30:31;102448.06;;;-0.65;100.00
64844;BME280;51310;52.198;5.422;2023-02-15T06:32:57;102462.28;;;-0.65;100.00
64844;BME280;51310;52.198;5.422;2023-02-15T06:35:23;102464.97;;;-0.69;100.00
64844;BME280;51310;52.198;5.422;2023-02-15T06:37:49;102468.03;;;-0.66;100.00
64844;BME280;51310;52.198;5.422;2023-02-15T06:40:15;102467.16;;;-0.61;100.00
64844;BME280;51310;52.198;5.422;2023-02-15T06:42:44;102463.22;;;-0.65;100.00
64844;BME280;51310;52.198;5.422;2023-02-15T06:45:11;102462.66;;;-0.58;100.00
64844;BME280;51310;52.198;5.422;2023-02-15T06:47:37;102465.56;;;-0.60;100.00
64844;BME280;51310;52.198;5.422;2023-02-15T06:50:04;102467.34;;;-0.65;100.00
64844;BME280;51310;52.198;5.422;2023-02-15T06:52:30;102472.38;;;-0.65;100.00
64844;BME280;51310;52.198;5.422;2023-02-15T06:54:56;102469.78;;;-0.71;100.00
64844;BME280;51310;52.198;5.422;2023-02-15T06:57:22;102458.56;;;-0.67;100.00
64844;BME280;51310;52.198;5.422;2023-02-15T06:59:48;102469.38;;;-0.68;100.00
64844;BME280;51310;52.198;5.422;2023-02-15T07:02:14;102465.91;;;-0.69;100.00
64844;BME280;51310;52.198;5.422;2023-02-15T07:04:40;102462.97;;;-0.66;100.00
64844;BME280;51310;52.198;5.422;2023-02-15T07:07:10;102469.09;;;-0.70;100.00
64844;BME280;51310;52.198;5.422;2023-02-15T07:09:37;102465.16;;;-0.73;100.00
64844;BME280;51310;52.198;5.422;2023-02-15T07:12:03;102455.03;;;-0.73;100.00
64844;BME280;51310;52.198;5.422;2023-02-15T07:14:48;102455.28;;;-0.72;100.00
64844;BME280;51310;52.198;5.422;2023-02-15T07:17:13;102465.66;;;-0.70;100.00
64844;BME280;51310;52.198;5.422;2023-02-15T07:19:39;102465.56;;;-0.60;100.00
64844;BME280;51310;52.198;5.422;2023-02-15T07:22:05;102466.41;;;-0.66;100.00
64844;BME280;51310;52.198;5.422;2023-02-15T07:24:31;102462.81;;;-0.62;100.00
64844;BME280;51310;52.198;5.422;2023-02-15T07:26:57;102457.59;;;-0.58;100.00
64844;BME280;51310;52.198;5.422;2023-02-15T07:29:25;102460.44;;;-0.51;100.00
64844;BME280;51310;52.198;5.422;2023-02-15T07:31:51;102454.97;;;-0.48;100.00
64844;BME280;51310;52.198;5.422;2023-02-15T07:34:17;102447.91;;;-0.45;100.00
64844;BME280;51310;52.198;5.422;2023-02-15T07:36:42;102448.56;;;-0.46;100.00
64844;BME280;51310;52.198;5.422;2023-02-15T07:39:11;102451.78;;;-0.47;100.00
64844;BME280;51310;52.198;5.422;2023-02-15T07:41:37;102435.59;;;-0.38;100.00
64844;BME280;51310;52.198;5.422;2023-02-15T07:44:03;102431.78;;;-0.30;100.00
64844;BME280;51310;52.198;5.422;2023-02-15T07:46:29;102424.13;;;-0.36;100.00
64844;BME280;51310;52.198;5.422;2023-02-15T07:48:55;102422.78;;;-0.34;100.00
64844;BME280;51310;52.198;5.422;2023-02-15T07:51:21;102423.03;;;-0.32;100.00
64844;BME280;51310;52.198;5.422;2023-02-15T07:53:46;102423.34;;;-0.25;100.00
64844;BME280;51310;52.198;5.422;2023-02-15T07:56:14;102425.47;;;-0.23;100.00
64844;BME280;51310;52.198;5.422;2023-02-15T07:58:40;102423.50;;;-0.14;100.00
64844;BME280;51310;52.198;5.422;2023-02-15T08:01:38;102414.06;;;-0.15;100.00
64844;BME280;51310;52.198;5.422;2023-02-15T08:04:06;102424.69;;;-0.12;100.00
64844;BME280;51310;52.198;5.422;2023-02-15T08:06:35;102428.81;;;-0.12;100.00
64844;BME280;51310;52.198;5.422;2023-02-15T08:09:05;102424.09;;;-0.05;100.00
64844;BME280;51310;52.198;5.422;2023-02-15T08:11:35;102423.44;;;-0.04;100.00
64844;BME280;51310;52.198;5.422;2023-02-15T08:14:17;102419.28;;;-0.04;100.00
64844;BME280;51310;52.198;5.422;2023-02-15T08:16:52;102420.94;;;0.02;100.00
64844;BME280;51310;52.198;5.422;2023-02-15T08:19:27;102418.75;;;0.09;100.00
64844;BME280;51310;52.198;5.422;2023-02-15T08:22:05;102416.03;;;0.13;100.00
64844;BME280;51310;52.198;5.422;2023-02-15T08:24:36;102416.09;;;0.18;100.00
64844;BME280;51310;52.198;5.422;2023-02-15T08:27:07;102413.41;;;0.23;100.00
64844;BME280;51310;52.198;5.422;2023-02-15T08:29:35;102405.44;;;0.31;100.00
64844;BME280;51310;52.198;5.422;2023-02-15T08:32:08;102410.38;;;0.40;100.00
64844;BME280;51310;52.198;5.422;2023-02-15T08:34:38;102405.69;;;0.53;100.00
64844;BME280;51310;52.198;5.422;2023-02-15T08:37:04;102407.84;;;0.61;100.00
64844;BME280;51310;52.198;5.422;2023-02-15T08:39:31;102405.13;;;0.66;100.00
64844;BME280;51310;52.198;5.422;2023-02-15T08:41:57;102399.25;;;0.76;100.00
64844;BME280;51310;52.198;5.422;2023-02-15T08:44:23;102393.25;;;0.76;100.00
64844;BME280;51310;52.198;5.422;2023-02-15T08:46:50;102395.16;;;0.82;100.00
64844;BME280;51310;52.198;5.422;2023-02-15T08:49:19;102394.28;;;0.88;100.00
64844;BME280;51310;52.198;5.422;2023-02-15T08:51:46;102393.38;;;0.93;100.00
64844;BME280;51310;52.198;5.422;2023-02-15T08:54:19;102390.97;;;1.04;100.00
64844;BME280;51310;52.198;5.422;2023-02-15T08:56:46;102388.78;;;1.17;100.00
64844;BME280;51310;52.198;5.422;2023-02-15T08:59:21;102386.97;;;1.21;100.00
64844;BME280;51310;52.198;5.422;2023-02-15T09:01:50;102386.50;;;1.24;100.00
64844;BME280;51310;52.198;5.422;2023-02-15T09:04:18;102380.31;;;1.28;100.00
64844;BME280;51310;52.198;5.422;2023-02-15T09:06:46;102379.91;;;1.36;100.00
64844;BME280;51310;52.198;5.422;2023-02-15T09:09:13;102383.19;;;1.46;100.00
64844;BME280;51310;52.198;5.422;2023-02-15T09:11:42;102381.44;;;1.56;100.00
64844;BME280;51310;52.198;5.422;2023-02-15T09:14:16;102374.06;;;1.63;100.00
64844;BME280;51310;52.198;5.422;2023-02-15T09:16:45;102377.59;;;1.70;100.00
64844;BME280;51310;52.198;5.422;2023-02-15T09:19:12;102371.38;;;1.73;100.00
64844;BME280;51310;52.198;5.422;2023-02-15T09:21:38;102379.72;;;1.78;100.00
64844;BME280;51310;52.198;5.422;2023-02-15T09:24:11;102373.72;;;1.83;100.00
64844;BME280;51310;52.198;5.422;2023-02-15T09:26:44;102372.19;;;1.95;100.00
64844;BME280;51310;52.198;5.422;2023-02-15T09:29:12;102368.72;;;2.00;100.00
64844;BME280;51310;52.198;5.422;2023-02-15T09:31:44;102369.47;;;2.10;100.00
64844;BME280;51310;52.198;5.422;2023-02-15T09:34:15;102370.88;;;2.19;100.00
64844;BME280;51310;52.198;5.422;2023-02-15T09:36:42;102365.13;;;2.26;100.00
64844;BME280;51310;52.198;5.422;2023-02-15T09:39:10;102373.22;;;2.35;100.00
64844;BME280;51310;52.198;5.422;2023-02-15T09:48:42;102371.00;;;2.70;100.00
64844;BME280;51310;52.198;5.422;2023-02-15T09:51:39;102363.38;;;2.76;100.00
64844;BME280;51310;52.198;5.422;2023-02-15T09:54:17;102361.50;;;2.80;100.00
64844;BME280;51310;52.198;5.422;2023-02-15T09:56:52;102359.91;;;2.86;100.00
64844;BME280;51310;52.198;5.422;2023-02-15T09:59:50;102358.31;;;2.98;100.00
64844;BME280;51310;52.198;5.422;2023-02-15T10:12:01;102374.94;;;3.41;100.00
64844;BME280;51310;52.198;5.422;2023-02-15T10:21:07;102376.66;;;3.82;100.00
64844;BME280;51310;52.198;5.422;2023-02-15T10:26:48;102375.44;;;4.02;100.00
64844;BME280;51310;52.198;5.422;2023-02-15T10:32:13;102379.97;;;4.22;100.00
64844;BME280;51310;52.198;5.422;2023-02-15T10:34:51;102375.97;;;4.29;100.00
64844;BME280;51310;52.198;5.422;2023-02-15T10:45:35;102370.84;;;4.76;100.00
64844;BME280;51310;52.198;5.422;2023-02-15T10:50:57;102362.53;;;5.01;100.00
64844;BME280;51310;52.198;5.422;2023-02-15T10:53:45;102359.50;;;5.04;100.00
64844;BME280;51310;52.198;5.422;2023-02-15T10:56:33;102358.09;;;5.06;100.00
64844;BME280;51310;52.198;5.422;2023-02-15T11:01:55;102355.00;;;5.38;100.00
64844;BME280;51310;52.198;5.422;2023-02-15T11:07:14;102351.97;;;5.59;100.00
64844;BME280;51310;52.198;5.422;2023-02-15T11:09:49;102347.91;;;5.72;100.00
64844;BME280;51310;52.198;5.422;2023-02-15T11:12:22;102336.53;;;5.89;100.00
64844;BME280;51310;52.198;5.422;2023-02-15T11:21:00;102333.13;;;6.20;100.00
64844;BME280;51310;52.198;5.422;2023-02-15T11:23:27;102329.38;;;6.23;100.00
64844;BME280;51310;52.198;5.422;2023-02-15T11:26:04;102321.19;;;6.44;100.00
64844;BME280;51310;52.198;5.422;2023-02-15T11:28:41;102320.56;;;6.40;100.00
64844;BME280;51310;52.198;5.422;2023-02-15T11:31:21;102314.03;;;6.42;100.00
64844;BME280;51310;52.198;5.422;2023-02-15T11:33:56;102307.66;;;6.45;100.00
64844;BME280;51310;52.198;5.422;2023-02-15T11:36:38;102305.38;;;6.60;100.00
64844;BME280;51310;52.198;5.422;2023-02-15T11:39:12;102303.22;;;6.75;100.00
64844;BME280;51310;52.198;5.422;2023-02-15T11:41:47;102296.47;;;6.89;100.00
64844;BME280;51310;52.198;5.422;2023-02-15T11:44:26;102295.06;;;7.04;100.00
64844;BME280;51310;52.198;5.422;2023-02-15T11:46:56;102284.81;;;7.16;100.00
64844;BME280;51310;52.198;5.422;2023-02-15T11:49:32;102280.44;;;7.28;100.00
64844;BME280;51310;52.198;5.422;2023-02-15T11:52:01;102271.75;;;7.53;100.00
64844;BME280;51310;52.198;5.422;2023-02-15T11:54:41;102268.47;;;7.67;100.00
64844;BME280;51310;52.198;5.422;2023-02-15T11:57:32;102263.72;;;7.70;100.00
64844;BME280;51310;52.198;5.422;2023-02-15T12:00:20;102248.56;;;7.72;100.00
64844;BME280;51310;52.198;5.422;2023-02-15T12:02:53;102248.09;;;7.81;100.00
64844;BME280;51310;52.198;5.422;2023-02-15T12:05:24;102242.88;;;7.87;100.00
64844;BME280;51310;52.198;5.422;2023-02-15T12:08:00;102247.72;;;7.98;100.00
64844;BME280;51310;52.198;5.422;2023-02-15T12:10:36;102244.00;;;8.09;100.00
64844;BME280;51310;52.198;5.422;2023-02-15T12:13:18;102245.00;;;8.17;100.00
64844;BME280;51310;52.198;5.422;2023-02-15T12:15:51;102247.81;;;8.26;100.00
64844;BME280;51310;52.198;5.422;2023-02-15T12:21:05;102245.47;;;8.47;100.00
64844;BME280;51310;52.198;5.422;2023-02-15T12:23:32;102237.03;;;8.48;100.00
64844;BME280;51310;52.198;5.422;2023-02-15T12:25:59;102236.16;;;8.55;100.00
64844;BME280;51310;52.198;5.422;2023-02-15T12:28:39;102232.34;;;8.58;100.00
64844;BME280;51310;52.198;5.422;2023-02-15T12:31:27;102235.72;;;8.72;100.00
64844;BME280;51310;52.198;5.422;2023-02-15T12:33:57;102225.94;;;8.89;100.00
64844;BME280;51310;52.198;5.422;2023-02-15T12:36:41;102227.69;;;9.03;100.00
64844;BME280;51310;52.198;5.422;2023-02-15T12:41:46;102232.75;;;9.30;100.00
64844;BME280;51310;52.198;5.422;2023-02-15T12:44:24;102219.06;;;9.44;100.00
64844;BME280;51310;52.198;5.422;2023-02-15T12:47:03;102218.72;;;9.48;98.91
64844;BME280;51310;52.198;5.422;2023-02-15T12:49:34;102212.84;;;9.56;97.59
64844;BME280;51310;52.198;5.422;2023-02-15T12:52:04;102212.88;;;9.63;96.07
64844;BME280;51310;52.198;5.422;2023-02-15T12:54:41;102209.00;;;9.60;96.33
64844;BME280;51310;52.198;5.422;2023-02-15T12:57:28;102206.44;;;9.67;96.18
64844;BME280;51310;52.198;5.422;2023-02-15T13:00:01;102212.88;;;9.71;95.96
64844;BME280;51310;52.198;5.422;2023-02-15T13:05:36;102204.25;;;9.70;95.50
64844;BME280;51310;52.198;5.422;2023-02-15T13:08:14;102205.88;;;9.62;97.00
64844;BME280;51310;52.198;5.422;2023-02-15T13:11:11;102208.03;;;9.45;96.96
64844;BME280;51310;52.198;5.422;2023-02-15T13:14:19;102189.84;;;9.36;97.59
64844;BME280;51310;52.198;5.422;2023-02-15T13:16:50;102189.63;;;9.28;98.56
64844;BME280;51310;52.198;5.422;2023-02-15T13:19:47;102184.84;;;9.23;97.68
64844;BME280;51310;52.198;5.422;2023-02-15T13:22:21;102179.50;;;9.22;97.79
64844;BME280;51310;52.198;5.422;2023-02-15T13:24:53;102190.38;;;9.27;98.33
64844;BME280;51310;52.198;5.422;2023-02-15T13:27:28;102185.03;;;9.32;98.62
64844;BME280;51310;52.198;5.422;2023-02-15T13:30:00;102185.59;;;9.37;99.63
64844;BME280;51310;52.198;5.422;2023-02-15T13:32:38;102192.63;;;9.45;99.62
64844;BME280;51310;52.198;5.422;2023-02-15T13:35:14;102181.81;;;9.62;98.43
64844;BME280;51310;52.198;5.422;2023-02-15T13:40:53;102184.78;;;9.72;95.76
64844;BME280;51310;52.198;5.422;2023-02-15T13:43:30;102182.94;;;9.71;95.98
64844;BME280;51310;52.198;5.422;2023-02-15T13:46:21;102176.53;;;9.75;96.55
64844;BME280;51310;52.198;5.422;2023-02-15T13:49:36;102166.59;;;9.71;96.26
64844;BME280;51310;52.198;5.422;2023-02-15T13:52:22;102169.53;;;9.67;96.49
64844;BME280;51310;52.198;5.422;2023-02-15T14:07:04;102166.06;;;9.66;97.99
64844;BME280;51310;52.198;5.422;2023-02-15T14:09:52;102165.84;;;9.72;97.19
64844;BME280;51310;52.198;5.422;2023-02-15T14:18:26;102176.00;;;9.92;92.70
64844;BME280;51310;52.198;5.422;2023-02-15T14:24:33;102169.72;;;9.82;95.95
64844;BME280;51310;52.198;5.422;2023-02-15T14:29:57;102163.31;;;9.86;92.53
64844;BME280;51310;52.198;5.422;2023-02-15T14:32:35;102169.56;;;9.81;92.40
64844;BME280;51310;52.198;5.422;2023-02-15T14:35:15;102164.75;;;9.70;92.43
64844;BME280;51310;52.198;5.422;2023-02-15T14:40:49;102164.19;;;9.58;92.91
64844;BME280;51310;52.198;5.422;2023-02-15T14:46:49;102159.97;;;9.51;93.55
64844;BME280;51310;52.198;5.422;2023-02-15T14:49:32;102159.97;;;9.51;93.74
64844;BME280;51310;52.198;5.422;2023-02-15T14:52:07;102155.16;;;9.47;93.84
64844;BME280;51310;52.198;5.422;2023-02-15T15:02:43;102161.22;;;9.40;96.08
64844;BME280;51310;52.198;5.422;2023-02-15T15:05:32;102162.13;;;9.34;95.98
64844;BME280;51310;52.198;5.422;2023-02-15T15:08:01;102154.41;;;9.27;96.39
64844;BME280;51310;52.198;5.422;2023-02-15T15:10:41;102160.06;;;9.24;97.19
64844;BME280;51310;52.198;5.422;2023-02-15T15:19:01;102166.63;;;9.15;97.94
64844;BME280;51310;52.198;5.422;2023-02-15T15:27:51;102154.69;;;9.08;97.84
64844;BME280;51310;52.198;5.422;2023-02-15T15:33:13;102156.28;;;9.00;97.52